Météo Nord-Pas-de-Calais   La météo au plus près de chez vous

Station météorologique

Observations météo à Saint-Goazec (29249)

29249002 260 m Dernier relevé à 10:54
16.9°C
Humidité 69 % Vent 18.7 km/h

Journée consultée

Dimanche 6 Septembre 2026

Synthèse de la journée

Périodes de référence en UTC

Température maximale

16.9°C

à 10:54

06h 06h

Température minimale

14.7°C

à 03:30

18h 18h

Rafale maximale

31 km/h

à 05:36

00h 00h

Précipitations

0.4 mm

Cumul quotidien

06h 06h

Graphiques de la journée

Heure locale Réduire

Données détaillées

Relevés météo

Pas de 6 minutes Afficher les relevés infra-horaires
Relevés météo détaillés à Saint-Goazec pour le Dimanche 6 Septembre 2026
Heure Température °C Point de rosée °C Humidité % Vent moyen (raf.), km/h Précipitations mm
10:54 16.9 °C 12.4 °C 75 % 22 km/h (31 km/h) 0 mm0 mm
10:48 16.7 °C 12.4 °C 76 % 22 km/h (31 km/h) 0 mm0 mm
10:42 16.6 °C 12.3 °C 76 % 21 km/h (28 km/h) 0 mm0 mm
10:36 16.2 °C 12.6 °C 79 % 21 km/h (28 km/h) 0 mm0 mm
10:30 16 °C 12.4 °C 79 % 21 km/h (30 km/h) 0 mm0 mm
10:24 16 °C 12.2 °C 78 % 21 km/h (30 km/h) 0 mm0 mm
10:18 15.6 °C 12.3 °C 81 % 21 km/h (30 km/h) 0 mm0 mm
10:12 15.6 °C 12.2 °C 80 % 21 km/h (30 km/h) 0 mm0 mm
10:06 16.1 °C 12.1 °C 77 % 19 km/h (28 km/h) 0.4 mm0 mm
10:00 16.7 °C 10.8 °C 68 % 19 km/h (27 km/h) 0 mm0 mm
09:54 16.6 °C 10.9 °C 69 % 19 km/h (27 km/h) 0 mm0 mm
09:48 16.6 °C 10.9 °C 69 % 19 km/h (27 km/h) 0 mm0 mm
09:42 16.5 °C 10.8 °C 69 % 19 km/h (27 km/h) 0 mm0 mm
09:36 16.4 °C 10.7 °C 69 % 19 km/h (25 km/h) 0 mm0 mm
09:30 16.6 °C 10.7 °C 68 % 19 km/h (26 km/h) 0 mm0 mm
09:24 16.6 °C 10.7 °C 68 % 19 km/h (26 km/h) 0 mm0 mm
09:18 16.6 °C 10.7 °C 68 % 19 km/h (26 km/h) 0 mm0 mm
09:12 16.6 °C 10.7 °C 68 % 19 km/h (28 km/h) 0 mm0 mm
09:06 16.6 °C 10.7 °C 68 % 19 km/h (27 km/h) 0 mm0 mm
09:00 16.6 °C 10.7 °C 68 % 20 km/h (27 km/h) 0 mm0 mm
08:54 16.5 °C 10.6 °C 68 % 20 km/h (27 km/h) 0 mm0 mm
08:48 16.4 °C 10.7 °C 69 % 19 km/h (28 km/h) 0 mm0 mm
08:42 16.3 °C 10.4 °C 68 % 19 km/h (27 km/h) 0 mm0 mm
08:36 16.4 °C 10.5 °C 68 % 19 km/h (26 km/h) 0 mm0 mm
08:30 16.4 °C 10.5 °C 68 % 19 km/h (26 km/h) 0 mm0 mm
08:24 16.4 °C 10.3 °C 67 % 20 km/h (28 km/h) 0 mm0 mm
08:18 16.3 °C 10.4 °C 68 % 20 km/h (28 km/h) 0 mm0 mm
08:12 16.2 °C 10.3 °C 68 % 19 km/h (27 km/h) 0 mm0 mm
08:06 16.1 °C 10.4 °C 69 % 18 km/h (27 km/h) 0 mm0 mm
08:00 16.2 °C 10.3 °C 68 % 19 km/h (26 km/h) 0 mm0 mm
07:54 16.2 °C 10.3 °C 68 % 19 km/h (26 km/h) 0 mm0 mm
07:48 16.3 °C 10.4 °C 68 % 19 km/h (27 km/h) 0 mm0 mm
07:42 16.1 °C 10.2 °C 68 % 19 km/h (28 km/h) 0 mm0 mm
07:36 16 °C 10.1 °C 68 % 19 km/h (28 km/h) 0 mm0 mm
07:30 15.9 °C 10.2 °C 69 % 20 km/h (27 km/h) 0 mm0 mm
07:24 15.7 °C 10.2 °C 70 % 19 km/h (27 km/h) 0 mm0 mm
07:18 15.5 °C 10 °C 70 % 18 km/h (26 km/h) 0 mm0 mm
07:12 15.4 °C 10.2 °C 71 % 18 km/h (24 km/h) 0 mm0 mm
07:06 15.5 °C 10 °C 70 % 18 km/h (24 km/h) 0 mm0 mm
07:00 15.5 °C 10.3 °C 71 % 17 km/h (24 km/h) 0 mm0 mm
06:54 15.4 °C 10.2 °C 71 % 18 km/h (25 km/h) 0 mm0 mm
06:48 15.4 °C 10.2 °C 71 % 18 km/h (25 km/h) 0 mm0 mm
06:42 15.2 °C 10.2 °C 72 % 18 km/h (23 km/h) 0 mm0 mm
06:36 15.2 °C 10.2 °C 72 % 18 km/h (23 km/h) 0 mm0 mm
06:30 15.2 °C 10.2 °C 72 % 18 km/h (23 km/h) 0 mm0 mm
06:24 15.4 °C 10.2 °C 71 % 17 km/h (24 km/h) 0 mm0 mm
06:18 15.5 °C 10 °C 70 % 17 km/h (25 km/h) 0 mm0 mm
06:12 15.8 °C 9.9 °C 68 % 18 km/h (28 km/h) 0 mm0 mm
06:06 16.2 °C 10.1 °C 67 % 18 km/h (28 km/h) 0 mm0 mm
06:00 15.9 °C 10 °C 68 % 20 km/h (29 km/h) 0 mm0 mm
05:54 16.4 °C 10 °C 66 % 21 km/h (29 km/h) 0 mm0 mm
05:48 15.9 °C 10.2 °C 69 % 19 km/h (30 km/h) 0 mm0 mm
05:42 16 °C 10.1 °C 68 % 20 km/h (31 km/h) 0 mm0 mm
05:36 15.8 °C 10.1 °C 69 % 20 km/h (31 km/h) 0 mm0 mm
05:30 15.9 °C 10 °C 68 % 20 km/h (28 km/h) 0 mm0 mm
05:24 15.8 °C 9.9 °C 68 % 20 km/h (28 km/h) 0 mm0 mm
05:18 15.7 °C 10 °C 69 % 19 km/h (28 km/h) 0 mm0 mm
05:12 15.6 °C 10.1 °C 70 % 18 km/h (26 km/h) 0 mm0 mm
05:06 15.1 °C 9.9 °C 71 % 17 km/h (23 km/h) 0 mm0 mm
05:00 14.9 °C 9.7 °C 71 % 15 km/h (22 km/h) 0 mm0 mm
04:54 14.9 °C 9.9 °C 72 % 15 km/h (21 km/h) 0 mm0 mm
04:48 14.8 °C 9.6 °C 71 % 15 km/h (22 km/h) 0 mm0 mm
04:42 14.9 °C 9.7 °C 71 % 16 km/h (23 km/h) 0 mm0 mm
04:36 15.1 °C 9.7 °C 70 % 16 km/h (23 km/h) 0 mm0 mm
04:30 15.4 °C 9.5 °C 68 % 17 km/h (25 km/h) 0 mm0 mm
04:24 15.8 °C 9.5 °C 66 % 17 km/h (25 km/h) 0 mm0 mm
04:18 16 °C 9.6 °C 66 % 18 km/h (26 km/h) 0 mm0 mm
04:12 16 °C 9.6 °C 66 % 19 km/h (27 km/h) 0 mm0 mm
04:06 15.7 °C 9.8 °C 68 % 18 km/h (27 km/h) 0 mm0 mm
04:00 15.6 °C 9.7 °C 68 % 18 km/h (25 km/h) 0 mm0 mm
03:54 15.6 °C 9.9 °C 69 % 19 km/h (25 km/h) 0 mm0 mm
03:48 15.2 °C 10 °C 71 % 18 km/h (24 km/h) 0 mm0 mm
03:42 15.2 °C 10 °C 71 % 17 km/h (25 km/h) 0 mm0 mm
03:36 15 °C 10.2 °C 73 % 15 km/h (22 km/h) 0 mm0 mm
03:30 14.7 °C 10.5 °C 76 % 15 km/h (22 km/h) 0 mm0 mm
03:24 14.9 °C 10.5 °C 75 % 16 km/h (24 km/h) 0 mm0 mm
03:18 14.9 °C 10.5 °C 75 % 17 km/h (23 km/h) 0 mm0 mm
03:12 15 °C 10.8 °C 76 % 17 km/h (23 km/h) 0 mm0 mm
03:06 15.2 °C 10.6 °C 74 % 17 km/h (27 km/h) 0 mm0 mm
03:00 15.6 °C 10.6 °C 72 % 18 km/h (29 km/h) 0 mm0 mm
02:54 15.7 °C 10.5 °C 71 % 19 km/h (29 km/h) 0 mm0 mm
02:48 15.6 °C 10.8 °C 73 % 19 km/h (28 km/h) 0 mm0 mm
02:42 15.4 °C 10.8 °C 74 % 17 km/h (28 km/h) 0 mm0 mm
02:36 15.4 °C 11 °C 75 % 18 km/h (26 km/h) 0 mm0 mm
02:30 15.4 °C 11.2 °C 76 % 17 km/h (26 km/h) 0 mm0 mm
02:24 15.4 °C 11.2 °C 76 % 16 km/h (23 km/h) 0 mm0 mm
02:18 15.2 °C 11.2 °C 77 % 15 km/h (23 km/h) 0 mm0 mm
02:12 15.3 °C 11.3 °C 77 % 16 km/h (24 km/h) 0 mm0 mm
02:06 15.3 °C 11.5 °C 78 % 17 km/h (24 km/h) 0 mm0 mm
02:00 15.3 °C 11.7 °C 79 % 15 km/h (24 km/h) 0 mm0 mm
01:54 15.2 °C 11.6 °C 79 % 15 km/h (22 km/h) 0 mm0 mm
01:48 15.4 °C 11.8 °C 79 % 15 km/h (21 km/h) 0 mm0 mm
01:42 15.5 °C 11.7 °C 78 % 15 km/h (23 km/h) 0 mm0 mm
01:36 15.7 °C 11.7 °C 77 % 15 km/h (23 km/h) 0 mm0 mm
01:30 15.8 °C 11.6 °C 76 % 15 km/h (26 km/h) 0 mm0 mm
01:24 15.9 °C 11.7 °C 76 % 17 km/h (26 km/h) 0 mm0 mm
01:18 16 °C 11.8 °C 76 % 16 km/h (26 km/h) 0 mm0 mm
01:12 15.9 °C 11.9 °C 77 % 15 km/h (23 km/h) 0 mm0 mm
01:06 15.9 °C 12.1 °C 78 % 15 km/h (24 km/h) 0 mm0 mm
01:00 15.9 °C 12.1 °C 78 % 15 km/h (21 km/h) 0 mm0 mm
00:54 15.9 °C 12.1 °C 78 % 15 km/h (21 km/h) 0 mm0 mm
00:48 15.9 °C 12.1 °C 78 % 15 km/h (24 km/h) 0 mm0 mm
00:42 15.9 °C 12.3 °C 79 % 14 km/h (24 km/h) 0 mm0 mm
00:36 16 °C 12.4 °C 79 % 14 km/h (22 km/h) 0 mm0 mm
00:30 16 °C 12.2 °C 78 % 14 km/h (22 km/h) 0 mm0 mm
00:24 16.1 °C 12.3 °C 78 % 14 km/h (23 km/h) 0 mm0 mm
00:18 16.2 °C 12.4 °C 78 % 14 km/h (23 km/h) 0 mm0 mm
00:12 16.4 °C 12.4 °C 77 % 15 km/h (22 km/h) 0 mm0 mm
00:06 16.5 °C 12.3 °C 76 % 15 km/h (23 km/h) 0 mm0 mm
00:00 16.6 °C 12.3 °C 76 % 15 km/h (24 km/h) 0 mm0 mm

Données via Météo-France

Relevés météo à Saint-Goazec

Cette page rassemble les observations de la station de Saint-Goazec : température, humidité, vent, précipitations et pression atmosphérique. Les graphiques facilitent le suivi de la journée, tandis que le tableau donne accès aux mesures horaires et infra-horaires disponibles.

Pour replacer ces mesures dans leur contexte, consultez la climatologie de Saint-Goazec. Retrouvez aussi la carte des observations météo en temps réel.